Time;durP1;ratioP1;P1;durP2;ratioP2;P2;SDS_P1;SDS_P2;PMS_P1;PMS_P2;Temp;Humidity;BMP_temperature;BMP_pressure;BME280_temperature;BME280_humidity;BME280_pressure;Samples;Min_cycle;Max_cycle;Signal;HPM_P1;HPM_P2
2023/12/16 00:02:13;;;;;;;13.00;6.88;;;;;;;;;;7373615;19;20122;-77
2023/12/16 00:04:40;;;;;;;12.52;6.80;;;;;;;;;;7374834;19;20737;-78
2023/12/16 00:07:05;;;;;;;15.30;7.18;;;;;;;;;;7370755;19;20006;-77
2023/12/16 00:09:31;;;;;;;14.70;6.97;;;;;;;;;;7394543;19;20035;-76
2023/12/16 00:11:56;;;;;;;16.60;7.55;;;;;;;;;;7369215;19;20002;-76
2023/12/16 00:14:21;;;;;;;15.55;7.68;;;;;;;;;;7368271;19;20010;-77
2023/12/16 00:16:47;;;;;;;16.95;7.30;;;;;;;;;;7367703;19;20010;-77
2023/12/16 00:19:12;;;;;;;13.38;6.68;;;;;;;;;;7368056;19;20014;-77
2023/12/16 00:21:37;;;;;;;16.08;7.05;;;;;;;;;;7390668;19;20162;-77
2023/12/16 00:24:04;;;;;;;15.88;7.22;;;;;;;;;;7367695;19;20003;-76
2023/12/16 00:26:29;;;;;;;15.63;7.00;;;;;;;;;;7367669;19;20031;-76
2023/12/16 00:28:55;;;;;;;14.50;6.90;;;;;;;;;;7369171;19;20074;-76
2023/12/16 00:31:20;;;;;;;15.35;6.95;;;;;;;;;;7369758;19;20085;-76
2023/12/16 00:33:45;;;;;;;14.40;6.57;;;;;;;;;;7392576;19;20016;-76
2023/12/16 00:36:11;;;;;;;14.13;6.85;;;;;;;;;;7368169;19;20029;-76
2023/12/16 00:38:36;;;;;;;14.45;6.75;;;;;;;;;;7366072;19;20010;-77
2023/12/16 00:41:01;;;;;;;14.65;6.97;;;;;;;;;;7369391;19;20018;-77
2023/12/16 00:43:27;;;;;;;17.77;7.55;;;;;;;;;;7369838;19;20587;-77
2023/12/16 00:45:52;;;;;;;12.88;5.85;;;;;;;;;;7386245;19;20331;-76
2023/12/16 00:48:17;;;;;;;12.85;6.22;;;;;;;;;;7368723;19;20472;-77
2023/12/16 00:50:42;;;;;;;10.90;6.25;;;;;;;;;;7368214;19;20036;-77
2023/12/16 00:53:08;;;;;;;10.77;5.60;;;;;;;;;;7368010;19;20014;-77
2023/12/16 00:55:33;;;;;;;15.27;6.70;;;;;;;;;;7368637;19;20007;-77
2023/12/16 00:57:58;;;;;;;13.02;6.18;;;;;;;;;;7368764;19;20421;-78
2023/12/16 01:00:24;;;;;;;16.50;6.68;;;;;;;;;;7393991;19;20078;-77
2023/12/16 01:02:49;;;;;;;15.38;6.22;;;;;;;;;;7368389;19;20014;-77
2023/12/16 01:05:15;;;;;;;13.73;6.07;;;;;;;;;;7366222;19;20710;-78
2023/12/16 01:07:40;;;;;;;13.27;5.43;;;;;;;;;;7367004;19;20491;-78
2023/12/16 01:10:06;;;;;;;16.00;5.82;;;;;;;;;;7367084;19;20469;-75
2023/12/16 01:12:31;;;;;;;15.10;5.78;;;;;;;;;;7387903;19;20026;-76
2023/12/16 01:14:56;;;;;;;11.85;5.47;;;;;;;;;;7370266;19;20017;-77
2023/12/16 01:17:22;;;;;;;16.27;5.63;;;;;;;;;;7382764;19;20086;-76
2023/12/16 01:19:47;;;;;;;12.88;5.05;;;;;;;;;;7370970;19;20010;-76
2023/12/16 01:22:13;;;;;;;14.23;5.18;;;;;;;;;;7369573;19;21079;-78
2023/12/16 01:24:38;;;;;;;14.50;5.50;;;;;;;;;;7388279;19;20030;-77
2023/12/16 01:27:05;;;;;;;9.75;4.38;;;;;;;;;;7367008;19;20021;-77
2023/12/16 01:29:30;;;;;;;13.05;4.85;;;;;;;;;;7369575;19;20936;-77
2023/12/16 01:31:55;;;;;;;10.45;4.40;;;;;;;;;;7366431;19;20127;-77
2023/12/16 01:34:21;;;;;;;12.77;4.88;;;;;;;;;;7364379;19;20028;-76
2023/12/16 01:36:46;;;;;;;12.60;5.28;;;;;;;;;;7387416;19;20085;-76
2023/12/16 01:39:11;;;;;;;12.48;5.97;;;;;;;;;;7367180;19;20495;-77
2023/12/16 01:41:36;;;;;;;13.10;5.90;;;;;;;;;;7367306;19;20022;-77
2023/12/16 01:44:02;;;;;;;15.65;5.72;;;;;;;;;;7366312;19;20458;-77
2023/12/16 01:46:28;;;;;;;11.77;6.03;;;;;;;;;;7363995;19;20023;-76
2023/12/16 01:48:54;;;;;;;10.73;5.25;;;;;;;;;;7382151;19;20010;-76
2023/12/16 01:51:19;;;;;;;12.88;6.18;;;;;;;;;;7391096;19;20005;-76
2023/12/16 01:53:45;;;;;;;10.90;4.82;;;;;;;;;;7379390;19;20017;-77
2023/12/16 01:56:12;;;;;;;13.98;5.78;;;;;;;;;;7382647;19;20499;-77
2023/12/16 01:58:38;;;;;;;11.25;5.55;;;;;;;;;;7382504;19;20010;-76
2023/12/16 02:01:04;;;;;;;15.45;5.70;;;;;;;;;;7380550;19;20037;-76
2023/12/16 02:03:30;;;;;;;12.60;5.05;;;;;;;;;;7400779;19;20005;-76
2023/12/16 02:05:57;;;;;;;12.73;5.40;;;;;;;;;;7379014;19;20038;-76
2023/12/16 02:08:22;;;;;;;13.88;5.68;;;;;;;;;;7383128;19;20101;-77
2023/12/16 02:10:48;;;;;;;13.23;5.18;;;;;;;;;;7380547;19;20264;-77
2023/12/16 02:13:13;;;;;;;15.70;5.22;;;;;;;;;;7378498;19;20017;-77
2023/12/16 02:15:39;;;;;;;11.25;4.80;;;;;;;;;;7400932;19;20058;-76
2023/12/16 02:18:04;;;;;;;14.68;5.25;;;;;;;;;;7378611;19;20007;-76
2023/12/16 02:20:30;;;;;;;13.65;5.65;;;;;;;;;;7377527;19;20023;-76
2023/12/16 02:22:55;;;;;;;13.95;4.75;;;;;;;;;;7378331;19;20489;-76
2023/12/16 02:25:21;;;;;;;13.50;5.47;;;;;;;;;;7378829;19;20010;-76
2023/12/16 02:27:46;;;;;;;14.00;5.20;;;;;;;;;;7401419;19;20043;-76
2023/12/16 02:30:12;;;;;;;12.82;5.85;;;;;;;;;;7378906;19;19998;-76
2023/12/16 02:32:38;;;;;;;15.60;5.35;;;;;;;;;;7377539;19;20148;-77
2023/12/16 02:35:04;;;;;;;14.25;5.78;;;;;;;;;;7378394;19;20025;-76
2023/12/16 02:37:29;;;;;;;13.07;6.28;;;;;;;;;;7378251;19;20014;-77
2023/12/16 02:39:55;;;;;;;13.68;7.03;;;;;;;;;;7382011;19;20005;-76
2023/12/16 02:42:20;;;;;;;19.40;6.25;;;;;;;;;;7399822;19;20014;-76
2023/12/16 02:44:46;;;;;;;14.88;6.10;;;;;;;;;;7376317;19;20465;-76
2023/12/16 02:47:11;;;;;;;14.48;5.95;;;;;;;;;;7377970;19;20160;-77
2023/12/16 02:49:36;;;;;;;11.77;6.28;;;;;;;;;;7378020;19;20079;-77
2023/12/16 02:52:02;;;;;;;13.57;6.53;;;;;;;;;;7378473;19;19999;-77
2023/12/16 02:54:28;;;;;;;17.48;7.03;;;;;;;;;;7401404;19;20002;-77
2023/12/16 02:56:53;;;;;;;17.63;6.35;;;;;;;;;;7379809;19;20011;-77
2023/12/16 02:59:19;;;;;;;15.77;6.53;;;;;;;;;;7379100;19;20396;-77
2023/12/16 03:01:44;;;;;;;14.63;6.70;;;;;;;;;;7371682;19;20014;-77
2023/12/16 03:04:09;;;;;;;15.43;6.95;;;;;;;;;;7368346;19;20014;-76
2023/12/16 03:06:35;;;;;;;12.85;6.18;;;;;;;;;;7390528;19;20010;-76
2023/12/16 03:09:01;;;;;;;18.63;6.43;;;;;;;;;;7372961;19;20014;-76
2023/12/16 03:11:27;;;;;;;15.38;6.18;;;;;;;;;;7372517;19;20014;-76
2023/12/16 03:13:52;;;;;;;10.57;6.18;;;;;;;;;;7368292;19;20043;-77
2023/12/16 03:16:17;;;;;;;16.15;6.93;;;;;;;;;;7369149;19;19999;-77
2023/12/16 03:18:43;;;;;;;10.70;6.35;;;;;;;;;;7395392;19;20010;-78
2023/12/16 03:21:08;;;;;;;14.18;5.90;;;;;;;;;;7371564;19;20003;-77
2023/12/16 03:23:35;;;;;;;16.17;6.18;;;;;;;;;;7369005;19;20099;-76
2023/12/16 03:26:00;;;;;;;17.02;5.90;;;;;;;;;;7370305;19;20027;-78
2023/12/16 03:28:26;;;;;;;13.35;5.47;;;;;;;;;;7382231;19;20078;-77
2023/12/16 03:30:51;;;;;;;12.18;4.60;;;;;;;;;;7405501;19;20019;-76
2023/12/16 03:33:16;;;;;;;9.85;5.15;;;;;;;;;;7384385;19;20035;-76
2023/12/16 03:35:42;;;;;;;9.75;4.70;;;;;;;;;;7377656;19;20026;-76
2023/12/16 03:38:07;;;;;;;12.00;4.90;;;;;;;;;;7373309;19;20010;-76
2023/12/16 03:40:32;;;;;;;9.98;4.55;;;;;;;;;;7378930;19;20032;-76
2023/12/16 03:42:58;;;;;;;12.05;5.10;;;;;;;;;;7369322;19;20010;-76
2023/12/16 03:45:23;;;;;;;12.23;4.30;;;;;;;;;;7390187;19;19998;-76
2023/12/16 03:47:49;;;;;;;13.77;4.88;;;;;;;;;;7370234;19;20016;-77
2023/12/16 03:50:14;;;;;;;11.45;4.28;;;;;;;;;;7372989;19;20011;-76
2023/12/16 03:52:39;;;;;;;14.20;4.97;;;;;;;;;;7369475;19;20038;-77
2023/12/16 03:55:05;;;;;;;11.50;4.30;;;;;;;;;;7369823;19;20022;-77
2023/12/16 03:57:32;;;;;;;10.60;4.22;;;;;;;;;;7390657;19;20012;-76
2023/12/16 03:59:58;;;;;;;13.07;4.60;;;;;;;;;;7369052;19;20009;-76
2023/12/16 04:02:23;;;;;;;13.25;4.90;;;;;;;;;;7368187;19;20077;-77
2023/12/16 04:04:48;;;;;;;17.50;4.90;;;;;;;;;;7369776;19;20731;-76
2023/12/16 04:07:14;;;;;;;11.48;4.68;;;;;;;;;;7368250;19;20022;-76
2023/12/16 04:09:40;;;;;;;9.68;4.07;;;;;;;;;;7390687;19;20471;-76
2023/12/16 04:12:06;;;;;;;12.43;4.53;;;;;;;;;;7369922;19;20013;-77
2023/12/16 04:14:36;;;;;;;10.32;4.53;;;;;;;;;;7368260;19;20007;-77
2023/12/16 04:17:02;;;;;;;11.48;4.30;;;;;;;;;;7369162;19;20402;-76
2023/12/16 04:19:27;;;;;;;10.95;4.65;;;;;;;;;;7366718;19;20082;-76
2023/12/16 04:21:52;;;;;;;14.05;4.50;;;;;;;;;;7390171;19;20006;-77
2023/12/16 04:24:18;;;;;;;12.45;4.38;;;;;;;;;;7365735;19;20010;-77
2023/12/16 04:26:43;;;;;;;13.48;4.45;;;;;;;;;;7365877;19;20002;-75
2023/12/16 04:29:08;;;;;;;10.75;4.13;;;;;;;;;;7368866;19;20459;-78
2023/12/16 04:31:34;;;;;;;12.55;4.30;;;;;;;;;;7368918;19;20002;-76
2023/12/16 04:33:59;;;;;;;13.15;3.72;;;;;;;;;;7365881;19;20058;-76
2023/12/16 04:36:24;;;;;;;10.27;3.80;;;;;;;;;;7388555;19;20018;-77
2023/12/16 04:38:50;;;;;;;13.18;4.10;;;;;;;;;;7368721;19;20384;-76
2023/12/16 04:41:15;;;;;;;11.30;4.35;;;;;;;;;;7375252;19;20021;-77
2023/12/16 04:43:41;;;;;;;12.15;4.45;;;;;;;;;;7368121;19;20042;-78
2023/12/16 04:46:07;;;;;;;11.18;4.65;;;;;;;;;;7366115;19;20018;-76
2023/12/16 04:48:33;;;;;;;14.55;4.00;;;;;;;;;;7390524;19;20137;-76
2023/12/16 04:51:06;;;;;;;14.23;4.88;;;;;;;;;;7369771;19;20006;-76
2023/12/16 04:53:32;;;;;;;10.43;4.30;;;;;;;;;;7372928;19;20422;-78
2023/12/16 04:55:57;;;;;;;14.90;4.50;;;;;;;;;;7378092;19;20110;-77
2023/12/16 04:58:23;;;;;;;13.32;4.47;;;;;;;;;;7372937;19;20014;-76
2023/12/16 05:00:48;;;;;;;11.55;4.18;;;;;;;;;;7396433;19;20101;-77
2023/12/16 05:03:14;;;;;;;13.35;4.50;;;;;;;;;;7368945;19;20074;-76
2023/12/16 05:05:39;;;;;;;18.33;4.45;;;;;;;;;;7367248;19;20078;-76
2023/12/16 05:08:04;;;;;;;12.45;4.03;;;;;;;;;;7375225;19;20051;-78
2023/12/16 05:10:30;;;;;;;9.40;4.22;;;;;;;;;;7383817;19;20062;-78
2023/12/16 05:12:55;;;;;;;11.10;3.92;;;;;;;;;;7373197;19;20019;-76
2023/12/16 05:15:20;;;;;;;10.75;3.95;;;;;;;;;;7388248;19;20114;-77
2023/12/16 05:17:46;;;;;;;10.27;4.22;;;;;;;;;;7366501;19;20015;-76
2023/12/16 05:20:12;;;;;;;12.68;3.70;;;;;;;;;;7371262;19;20027;-77
2023/12/16 05:22:37;;;;;;;10.40;4.15;;;;;;;;;;7374571;19;20013;-76
2023/12/16 05:25:03;;;;;;;8.63;3.78;;;;;;;;;;7365312;19;20433;-77
2023/12/16 05:27:29;;;;;;;12.77;3.90;;;;;;;;;;7387390;19;20640;-77
2023/12/16 05:29:56;;;;;;;11.32;3.95;;;;;;;;;;7366151;19;20036;-77
2023/12/16 05:32:22;;;;;;;10.00;4.00;;;;;;;;;;7366083;19;20003;-77
2023/12/16 05:34:47;;;;;;;9.30;3.83;;;;;;;;;;7366620;19;20014;-77
2023/12/16 05:37:13;;;;;;;10.60;3.80;;;;;;;;;;7366888;19;21007;-77
2023/12/16 05:39:38;;;;;;;9.25;3.75;;;;;;;;;;7387625;19;20034;-76
2023/12/16 05:42:04;;;;;;;7.75;3.50;;;;;;;;;;7365953;19;20010;-77
2023/12/16 05:44:29;;;;;;;15.82;4.00;;;;;;;;;;7365405;19;20013;-77
2023/12/16 05:46:54;;;;;;;9.45;3.95;;;;;;;;;;7366862;19;20651;-77
2023/12/16 05:49:20;;;;;;;14.40;4.10;;;;;;;;;;7370918;19;20006;-77
2023/12/16 05:51:45;;;;;;;13.48;4.18;;;;;;;;;;7394867;19;20009;-77
2023/12/16 05:54:10;;;;;;;11.10;3.80;;;;;;;;;;7363813;19;20006;-77
2023/12/16 05:56:36;;;;;;;9.82;3.63;;;;;;;;;;7364599;19;20006;-77
2023/12/16 05:59:01;;;;;;;13.05;3.90;;;;;;;;;;7364377;19;20366;-76
2023/12/16 06:01:26;;;;;;;10.05;3.80;;;;;;;;;;7363101;19;20027;-77
2023/12/16 06:03:52;;;;;;;11.93;3.85;;;;;;;;;;7385185;19;19998;-76
2023/12/16 06:06:18;;;;;;;12.05;4.13;;;;;;;;;;7362592;19;20010;-76
2023/12/16 06:08:46;;;;;;;13.48;3.70;;;;;;;;;;7366196;19;20414;-77
2023/12/16 06:11:12;;;;;;;11.70;3.80;;;;;;;;;;7372100;19;20017;-77
2023/12/16 06:13:39;;;;;;;12.25;4.03;;;;;;;;;;7377617;19;20010;-77
2023/12/16 06:16:07;;;;;;;13.25;3.90;;;;;;;;;;7366027;19;20010;-77
2023/12/16 06:18:33;;;;;;;12.93;4.10;;;;;;;;;;7389149;19;19994;-76
2023/12/16 06:20:58;;;;;;;17.77;4.20;;;;;;;;;;7364391;19;20513;-76
2023/12/16 06:23:23;;;;;;;9.13;4.10;;;;;;;;;;7365497;19;20088;-78
2023/12/16 06:25:49;;;;;;;11.27;3.55;;;;;;;;;;7376659;19;20002;-77
2023/12/16 06:28:14;;;;;;;12.40;4.15;;;;;;;;;;7376537;19;20003;-76
2023/12/16 06:30:41;;;;;;;11.82;4.53;;;;;;;;;;7376794;19;20010;-77
2023/12/16 06:33:07;;;;;;;10.50;3.75;;;;;;;;;;7360864;19;20115;-75
2023/12/16 06:35:32;;;;;;;8.98;3.72;;;;;;;;;;7364311;19;20010;-78
2023/12/16 06:37:57;;;;;;;14.98;5.05;;;;;;;;;;7381248;19;20013;-77
2023/12/16 06:40:23;;;;;;;6.95;3.38;;;;;;;;;;7389449;19;20017;-77
2023/12/16 06:42:48;;;;;;;13.10;4.30;;;;;;;;;;7393557;19;20425;-75
2023/12/16 06:45:14;;;;;;;13.15;3.92;;;;;;;;;;7373189;19;20137;-78
2023/12/16 06:47:40;;;;;;;11.00;3.67;;;;;;;;;;7371977;19;20519;-77
2023/12/16 06:50:08;;;;;;;10.32;3.33;;;;;;;;;;7371049;19;20552;-77
2023/12/16 06:52:33;;;;;;;11.80;3.67;;;;;;;;;;7369820;19;20029;-77
2023/12/16 06:54:58;;;;;;;9.88;3.60;;;;;;;;;;7373605;19;20006;-78
2023/12/16 06:57:23;;;;;;;12.00;3.80;;;;;;;;;;7394143;19;20014;-77
2023/12/16 06:59:49;;;;;;;13.48;4.25;;;;;;;;;;7371424;19;20401;-78
2023/12/16 07:02:14;;;;;;;11.88;4.18;;;;;;;;;;7371512;19;20503;-77
2023/12/16 07:04:40;;;;;;;12.00;3.53;;;;;;;;;;7368408;19;20061;-76
2023/12/16 07:07:05;;;;;;;11.35;4.15;;;;;;;;;;7367600;19;20017;-76
2023/12/16 07:09:31;;;;;;;9.43;3.50;;;;;;;;;;7393401;19;20014;-77
2023/12/16 07:11:56;;;;;;;7.72;3.60;;;;;;;;;;7372026;19;20014;-79
2023/12/16 07:14:21;;;;;;;9.23;3.63;;;;;;;;;;7379874;19;20010;-80
2023/12/16 07:16:47;;;;;;;11.40;4.30;;;;;;;;;;7373913;19;20496;-79
2023/12/16 07:19:14;;;;;;;9.70;3.72;;;;;;;;;;7373216;19;20002;-79
2023/12/16 07:21:42;;;;;;;12.93;4.18;;;;;;;;;;7396838;19;20021;-78
2023/12/16 07:24:07;;;;;;;12.52;4.15;;;;;;;;;;7371179;19;20014;-75
2023/12/16 07:26:32;;;;;;;10.38;4.10;;;;;;;;;;7368979;19;20212;-75
2023/12/16 07:29:00;;;;;;;9.52;3.58;;;;;;;;;;7373473;19;20022;-75
2023/12/16 07:31:26;;;;;;;9.32;3.67;;;;;;;;;;7373790;19;20015;-77
2023/12/16 07:33:51;;;;;;;10.50;4.13;;;;;;;;;;7392814;19;20014;-76
2023/12/16 07:36:16;;;;;;;8.90;4.15;;;;;;;;;;7371509;19;20007;-76
2023/12/16 07:38:45;;;;;;;9.32;3.63;;;;;;;;;;7370007;19;20074;-77
2023/12/16 07:41:10;;;;;;;10.18;3.90;;;;;;;;;;7373683;19;20146;-76
2023/12/16 07:43:38;;;;;;;10.15;4.22;;;;;;;;;;7372736;19;20077;-76
2023/12/16 07:46:05;;;;;;;14.18;4.18;;;;;;;;;;7370295;19;20504;-76
2023/12/16 07:48:30;;;;;;;10.60;3.70;;;;;;;;;;7392713;19;20006;-76
2023/12/16 07:50:55;;;;;;;16.80;4.53;;;;;;;;;;7373839;19;20291;-76
2023/12/16 07:53:21;;;;;;;10.45;3.80;;;;;;;;;;7377803;19;20018;-77
2023/12/16 07:55:47;;;;;;;14.07;4.43;;;;;;;;;;7373262;19;20015;-76
2023/12/16 07:58:14;;;;;;;9.10;3.65;;;;;;;;;;7371680;19;20023;-76
2023/12/16 08:00:39;;;;;;;14.63;4.30;;;;;;;;;;7392783;19;20015;-76
2023/12/16 08:03:05;;;;;;;14.82;4.75;;;;;;;;;;7369357;19;20010;-76
2023/12/16 08:05:30;;;;;;;18.35;7.18;;;;;;;;;;7373796;19;20476;-76
2023/12/16 08:07:55;;;;;;;12.52;6.03;;;;;;;;;;7382181;19;20111;-76
2023/12/16 08:10:21;;;;;;;13.75;4.25;;;;;;;;;;7384270;19;20021;-76
2023/12/16 08:12:46;;;;;;;13.27;4.10;;;;;;;;;;7401962;19;20027;-77
2023/12/16 08:15:12;;;;;;;9.90;3.88;;;;;;;;;;7371120;19;20066;-76
2023/12/16 08:17:37;;;;;;;8.48;3.60;;;;;;;;;;7372407;19;20010;-76
2023/12/16 08:20:05;;;;;;;9.32;3.75;;;;;;;;;;7372829;19;20014;-75
2023/12/16 08:22:31;;;;;;;11.43;3.42;;;;;;;;;;7371636;19;20018;-75
2023/12/16 08:24:57;;;;;;;12.32;4.28;;;;;;;;;;7372520;19;20009;-75
2023/12/16 08:27:22;;;;;;;14.00;4.28;;;;;;;;;;7391743;19;20364;-75
2023/12/16 08:29:48;;;;;;;14.77;4.20;;;;;;;;;;7369381;19;20018;-75
2023/12/16 08:32:13;;;;;;;14.35;4.10;;;;;;;;;;7369740;19;20019;-76
2023/12/16 08:34:38;;;;;;;11.45;3.50;;;;;;;;;;7369350;19;20014;-75
2023/12/16 08:37:04;;;;;;;9.43;4.32;;;;;;;;;;7368975;19;20002;-76
2023/12/16 08:39:29;;;;;;;10.18;3.97;;;;;;;;;;7391483;19;20038;-75
2023/12/16 08:41:54;;;;;;;12.27;3.70;;;;;;;;;;7368920;19;20078;-75
2023/12/16 08:44:20;;;;;;;10.40;3.75;;;;;;;;;;7371361;19;20066;-77
2023/12/16 08:46:46;;;;;;;14.38;4.18;;;;;;;;;;7371358;19;20006;-75
2023/12/16 08:49:11;;;;;;;12.30;4.28;;;;;;;;;;7373855;19;20006;-76
2023/12/16 08:51:36;;;;;;;11.55;3.97;;;;;;;;;;7390908;19;20021;-76
2023/12/16 08:54:02;;;;;;;14.23;4.28;;;;;;;;;;7367455;19;20010;-76
2023/12/16 08:56:27;;;;;;;13.80;4.90;;;;;;;;;;7368005;19;20010;-76
2023/12/16 08:58:52;;;;;;;12.38;4.75;;;;;;;;;;7368811;19;20363;-75
2023/12/16 09:01:17;;;;;;;12.55;5.30;;;;;;;;;;7374786;19;20035;-75
2023/12/16 09:03:43;;;;;;;10.00;3.95;;;;;;;;;;7392458;19;20018;-77
2023/12/16 09:06:09;;;;;;;19.90;9.18;;;;;;;;;;7367724;19;20027;-77
2023/12/16 09:08:34;;;;;;;33.50;19.15;;;;;;;;;;7368339;19;20017;-77
2023/12/16 09:10:59;;;;;;;12.23;5.10;;;;;;;;;;7368234;19;20461;-77
2023/12/16 09:13:25;;;;;;;12.20;4.22;;;;;;;;;;7370217;19;20011;-77
2023/12/16 09:15:51;;;;;;;12.30;4.32;;;;;;;;;;7396393;19;20023;-75
2023/12/16 09:18:17;;;;;;;10.05;4.22;;;;;;;;;;7371793;19;20010;-76
2023/12/16 09:20:42;;;;;;;13.35;4.38;;;;;;;;;;7368143;19;20099;-76
2023/12/16 09:23:08;;;;;;;11.73;4.38;;;;;;;;;;7367852;19;20070;-75
2023/12/16 09:25:34;;;;;;;11.77;4.05;;;;;;;;;;7366810;19;20034;-75
2023/12/16 09:27:59;;;;;;;10.98;3.67;;;;;;;;;;7366516;19;20356;-77
2023/12/16 09:30:25;;;;;;;13.00;4.18;;;;;;;;;;7389743;19;20503;-76
2023/12/16 09:32:50;;;;;;;12.43;4.07;;;;;;;;;;7366945;19;20027;-76
2023/12/16 09:35:15;;;;;;;10.88;3.80;;;;;;;;;;7368749;19;20024;-76
2023/12/16 09:37:41;;;;;;;11.88;4.10;;;;;;;;;;7367443;19;20014;-76
2023/12/16 09:40:07;;;;;;;9.57;3.72;;;;;;;;;;7366823;19;20002;-76
2023/12/16 09:42:35;;;;;;;9.02;3.85;;;;;;;;;;7388672;19;20007;-77
2023/12/16 09:45:02;;;;;;;15.45;7.72;;;;;;;;;;7372304;19;20082;-78
2023/12/16 09:47:28;;;;;;;14.75;4.60;;;;;;;;;;7380088;19;20030;-81
2023/12/16 09:49:56;;;;;;;16.13;4.20;;;;;;;;;;7377334;19;21240;-80
2023/12/16 09:52:21;;;;;;;15.32;4.40;;;;;;;;;;7364654;19;20010;-76
2023/12/16 09:54:47;;;;;;;11.23;4.00;;;;;;;;;;7384737;19;20086;-76
2023/12/16 09:57:16;;;;;;;13.20;4.63;;;;;;;;;;7371848;19;20010;-75
2023/12/16 09:59:43;;;;;;;11.45;4.03;;;;;;;;;;7382055;19;20180;-78
2023/12/16 10:02:28;;;;;;;10.75;3.90;;;;;;;;;;7367800;19;20492;-76
2023/12/16 10:04:57;;;;;;;12.57;3.78;;;;;;;;;;7364568;19;20015;-76
2023/12/16 10:07:23;;;;;;;9.05;3.60;;;;;;;;;;7366297;19;20113;-77
2023/12/16 10:09:49;;;;;;;8.13;3.22;;;;;;;;;;7385923;19;20010;-76
2023/12/16 10:12:14;;;;;;;12.70;3.78;;;;;;;;;;7369781;19;20146;-75
2023/12/16 10:14:49;;;;;;;12.63;3.55;;;;;;;;;;7374081;19;20011;-75
2023/12/16 10:17:19;;;;;;;12.18;3.63;;;;;;;;;;7371359;19;20021;-75
2023/12/16 10:19:45;;;;;;;16.50;3.50;;;;;;;;;;7375347;19;20378;-78
2023/12/16 10:22:15;;;;;;;10.90;3.58;;;;;;;;;;7373798;19;20018;-75
2023/12/16 10:24:41;;;;;;;13.80;3.40;;;;;;;;;;7398688;19;20007;-75
2023/12/16 10:27:07;;;;;;;10.85;3.47;;;;;;;;;;7375957;19;20131;-75
2023/12/16 10:29:33;;;;;;;8.40;3.28;;;;;;;;;;7381393;19;20046;-76
2023/12/16 10:31:58;;;;;;;9.27;3.13;;;;;;;;;;7376321;19;20401;-75
2023/12/16 10:34:28;;;;;;;9.75;3.47;;;;;;;;;;7369487;19;20015;-75
2023/12/16 10:37:02;;;;;;;11.98;3.35;;;;;;;;;;7396463;19;20010;-75
2023/12/16 10:39:28;;;;;;;12.40;3.33;;;;;;;;;;7372189;19;20343;-76
2023/12/16 10:41:53;;;;;;;11.60;3.20;;;;;;;;;;7375582;19;20002;-74
2023/12/16 10:44:19;;;;;;;10.85;3.10;;;;;;;;;;7372403;19;20024;-76
2023/12/16 10:46:46;;;;;;;12.02;3.70;;;;;;;;;;7379815;19;20006;-78
2023/12/16 10:49:14;;;;;;;11.32;3.10;;;;;;;;;;7376682;19;20006;-76
2023/12/16 10:51:45;;;;;;;14.73;3.42;;;;;;;;;;7399205;19;19998;-77
2023/12/16 10:54:17;;;;;;;;;;;;;;;;;;7376122;19;20010;-77
2023/12/16 10:56:51;;;;;;;10.85;3.08;;;;;;;;;;7369351;19;20378;-76
2023/12/16 10:59:25;;;;;;;11.15;3.60;;;;;;;;;;7375051;19;20102;-75
2023/12/16 11:01:56;;;;;;;16.33;3.88;;;;;;;;;;7370289;19;20027;-75
2023/12/16 11:04:32;;;;;;;10.73;3.58;;;;;;;;;;7366833;19;20082;-74
2023/12/16 11:06:57;;;;;;;11.20;3.45;;;;;;;;;;7364975;19;19999;-74
2023/12/16 11:09:23;;;;;;;12.90;3.75;;;;;;;;;;7386549;19;20027;-76
2023/12/16 11:11:49;;;;;;;10.77;3.20;;;;;;;;;;7370828;19;20011;-77
2023/12/16 11:14:15;;;;;;;8.43;3.50;;;;;;;;;;7371446;19;20015;-77
2023/12/16 11:16:49;;;;;;;13.98;3.83;;;;;;;;;;7371657;19;20077;-76
2023/12/16 11:19:16;;;;;;;12.82;3.63;;;;;;;;;;7369852;19;20004;-77
2023/12/16 11:21:43;;;;;;;12.38;3.35;;;;;;;;;;7394565;19;20018;-75
2023/12/16 11:24:10;;;;;;;15.05;3.40;;;;;;;;;;7364438;19;20010;-75
2023/12/16 11:26:35;;;;;;;8.57;3.10;;;;;;;;;;7366016;19;20020;-76
2023/12/16 11:29:03;;;;;;;7.95;3.03;;;;;;;;;;7369790;19;20419;-75
2023/12/16 11:31:30;;;;;;;9.10;3.35;;;;;;;;;;7375226;19;20057;-76
2023/12/16 11:33:55;;;;;;;11.35;3.50;;;;;;;;;;7371581;19;20006;-76
2023/12/16 11:36:48;;;;;;;14.25;3.80;;;;;;;;;;7390793;19;20013;-76
2023/12/16 11:39:44;;;;;;;12.85;3.40;;;;;;;;;;7369691;19;20007;-76
2023/12/16 11:42:12;;;;;;;14.38;2.90;;;;;;;;;;7367297;19;20044;-76
2023/12/16 11:45:06;;;;;;;13.82;3.38;;;;;;;;;;7370270;19;20027;-77
2023/12/16 11:47:31;;;;;;;9.13;3.05;;;;;;;;;;7384946;19;20010;-76
2023/12/16 11:49:57;;;;;;;12.05;2.75;;;;;;;;;;7386550;19;20009;-77
2023/12/16 11:52:24;;;;;;;12.90;3.15;;;;;;;;;;7380487;19;20011;-76
2023/12/16 11:54:57;;;;;;;12.18;3.13;;;;;;;;;;7404848;19;20532;-76
2023/12/16 11:57:25;;;;;;;11.32;3.10;;;;;;;;;;7378400;19;20359;-75
2023/12/16 11:59:52;;;;;;;11.68;2.97;;;;;;;;;;7383884;19;19999;-76
2023/12/16 12:02:21;;;;;;;16.15;4.95;;;;;;;;;;7384576;19;20037;-76
2023/12/16 12:04:47;;;;;;;13.13;2.78;;;;;;;;;;7383724;19;19994;-76
2023/12/16 12:07:14;;;;;;;12.27;2.92;;;;;;;;;;7384218;19;19998;-76
2023/12/16 12:09:43;;;;;;;7.72;2.83;;;;;;;;;;7404998;19;20005;-77
2023/12/16 12:12:09;;;;;;;12.95;3.13;;;;;;;;;;7383163;19;20013;-76
2023/12/16 12:14:41;;;;;;;9.93;2.83;;;;;;;;;;7380347;19;20030;-77
2023/12/16 12:17:08;;;;;;;12.30;3.20;;;;;;;;;;7381093;19;20002;-77
2023/12/16 12:19:33;;;;;;;13.07;3.10;;;;;;;;;;7382469;19;20002;-77
2023/12/16 12:21:59;;;;;;;16.45;3.45;;;;;;;;;;7383205;19;19998;-77
2023/12/16 12:24:25;;;;;;;7.88;3.00;;;;;;;;;;7392056;19;20009;-75
2023/12/16 12:26:52;;;;;;;11.88;3.03;;;;;;;;;;7379846;19;20006;-78
2023/12/16 12:29:18;;;;;;;10.10;3.30;;;;;;;;;;7387425;19;20047;-76
2023/12/16 12:31:45;;;;;;;13.50;2.90;;;;;;;;;;7405355;19;20078;-79
2023/12/16 12:34:19;;;;;;;14.57;3.40;;;;;;;;;;7392340;19;20037;-78
2023/12/16 12:36:45;;;;;;;9.40;3.10;;;;;;;;;;7401997;19;20119;-77
2023/12/16 12:39:15;;;;;;;10.88;2.90;;;;;;;;;;7388914;19;20726;-77
2023/12/16 12:41:40;;;;;;;11.57;2.72;;;;;;;;;;7386662;19;20334;-77
2023/12/16 12:44:11;;;;;;;9.57;2.58;;;;;;;;;;7379297;19;20026;-76
2023/12/16 12:46:49;;;;;;;10.68;3.17;;;;;;;;;;7380186;19;20002;-77
2023/12/16 12:49:14;;;;;;;12.23;2.80;;;;;;;;;;7380026;19;20011;-77
2023/12/16 12:51:52;;;;;;;10.23;2.58;;;;;;;;;;7401350;19;20010;-77
2023/12/16 12:54:57;;;;;;;9.52;2.60;;;;;;;;;;7386036;19;20061;-77
2023/12/16 12:57:29;;;;;;;10.90;2.72;;;;;;;;;;7401946;19;20011;-76
2023/12/16 12:59:54;;;;;;;11.18;4.07;;;;;;;;;;7389899;19;20006;-77
2023/12/16 13:02:21;;;;;;;10.45;2.58;;;;;;;;;;7383164;19;20006;-78
2023/12/16 13:04:46;;;;;;;10.52;2.63;;;;;;;;;;7381829;19;20021;-76
2023/12/16 13:07:12;;;;;;;11.55;2.92;;;;;;;;;;7381316;19;20003;-78
2023/12/16 13:09:38;;;;;;;10.40;2.40;;;;;;;;;;7403463;19;19995;-76
2023/12/16 13:12:04;;;;;;;7.03;2.40;;;;;;;;;;7380102;19;20158;-76
2023/12/16 13:14:29;;;;;;;9.20;2.42;;;;;;;;;;7378054;19;20007;-76
2023/12/16 13:16:54;;;;;;;9.77;2.40;;;;;;;;;;7377199;19;19998;-75
2023/12/16 13:19:20;;;;;;;12.73;2.70;;;;;;;;;;7384770;19;20018;-77
2023/12/16 13:21:45;;;;;;;12.30;2.70;;;;;;;;;;7403991;19;20038;-76
2023/12/16 13:24:11;;;;;;;10.35;2.55;;;;;;;;;;7381766;19;20659;-76
2023/12/16 13:26:37;;;;;;;10.45;2.85;;;;;;;;;;7378185;19;20085;-76
2023/12/16 13:29:02;;;;;;;16.10;2.85;;;;;;;;;;7381215;19;20483;-76
2023/12/16 13:31:28;;;;;;;8.55;2.35;;;;;;;;;;7381845;19;20006;-75
2023/12/16 13:33:53;;;;;;;11.82;2.38;;;;;;;;;;7404822;19;20015;-76
2023/12/16 13:36:19;;;;;;;12.00;3.00;;;;;;;;;;7386519;19;20017;-76
2023/12/16 13:38:45;;;;;;;13.32;2.25;;;;;;;;;;7385546;19;20006;-75
2023/12/16 13:41:10;;;;;;;10.90;2.92;;;;;;;;;;7390688;19;20030;-76
2023/12/16 13:43:35;;;;;;;8.80;2.80;;;;;;;;;;7388749;19;20014;-76
2023/12/16 13:46:01;;;;;;;9.35;2.70;;;;;;;;;;7384537;19;20007;-77
2023/12/16 13:48:26;;;;;;;8.43;2.60;;;;;;;;;;7410416;19;20467;-76
2023/12/16 13:50:52;;;;;;;11.05;2.45;;;;;;;;;;7386124;19;20015;-76
2023/12/16 13:53:17;;;;;;;9.40;2.20;;;;;;;;;;7386402;19;20067;-76
2023/12/16 13:55:43;;;;;;;9.38;2.72;;;;;;;;;;7381791;19;20010;-77
2023/12/16 13:58:08;;;;;;;7.10;2.20;;;;;;;;;;7380882;19;20007;-76
2023/12/16 14:00:34;;;;;;;11.55;2.35;;;;;;;;;;7403969;19;20477;-75
2023/12/16 14:03:00;;;;;;;10.88;2.60;;;;;;;;;;7382015;19;20007;-76
2023/12/16 14:05:26;;;;;;;9.23;2.85;;;;;;;;;;7379129;19;20010;-77
2023/12/16 14:07:51;;;;;;;11.38;2.45;;;;;;;;;;7380548;19;20017;-76
2023/12/16 14:10:16;;;;;;;11.32;2.67;;;;;;;;;;7384168;19;20031;-76
2023/12/16 14:12:42;;;;;;;10.90;2.60;;;;;;;;;;7407839;19;20483;-78
2023/12/16 14:15:08;;;;;;;10.20;2.45;;;;;;;;;;7386288;19;20070;-76
2023/12/16 14:17:33;;;;;;;13.43;2.70;;;;;;;;;;7387883;19;20406;-76
2023/12/16 14:19:59;;;;;;;7.93;2.08;;;;;;;;;;7387868;19;20089;-77
2023/12/16 14:22:26;;;;;;;9.20;2.47;;;;;;;;;;7385180;19;20461;-76
2023/12/16 14:24:52;;;;;;;10.82;2.60;;;;;;;;;;7403049;19;20002;-76
2023/12/16 14:27:18;;;;;;;10.50;2.17;;;;;;;;;;7385164;19;20018;-77
2023/12/16 14:29:43;;;;;;;9.93;2.50;;;;;;;;;;7379676;19;20003;-77